createdAt,value
2022-08-07T00:00:26.637Z,82.78
2022-08-07T00:02:58.445Z,83.18
2022-08-07T00:05:28.255Z,83.15
2022-08-07T00:08:00.116Z,83.19
2022-08-07T00:10:31.490Z,83.16
2022-08-07T00:13:09.910Z,83.50
2022-08-07T00:15:52.367Z,83.37
2022-08-07T00:18:25.310Z,83.80
2022-08-07T00:21:02.076Z,84.01
2022-08-07T00:23:32.579Z,84.00
2022-08-07T00:26:13.175Z,84.05
2022-08-07T00:28:56.524Z,84.18
2022-08-07T00:31:26.182Z,84.14
2022-08-07T00:34:13.675Z,84.43
2022-08-07T00:36:46.697Z,84.56
2022-08-07T00:39:16.924Z,84.86
2022-08-07T00:42:02.121Z,84.99
2022-08-07T00:44:34.835Z,85.08
2022-08-07T00:47:15.795Z,85.06
2022-08-07T00:50:20.419Z,85.33
2022-08-07T00:52:47.443Z,85.16
2022-08-07T00:55:17.508Z,85.61
2022-08-07T00:57:55.419Z,85.45
2022-08-07T01:00:24.751Z,85.27
2022-08-07T01:02:52.730Z,85.45
2022-08-07T01:05:24.433Z,85.34
2022-08-07T01:07:53.230Z,85.45
2022-08-07T01:10:23.551Z,85.36
2022-08-07T01:12:54.638Z,85.49
2022-08-07T01:15:35.698Z,85.43
2022-08-07T01:18:16.661Z,85.49
2022-08-07T01:21:22.555Z,85.53
2022-08-07T01:23:51.632Z,85.68
2022-08-07T01:26:22.770Z,85.99
2022-08-07T01:28:54.704Z,86.17
2022-08-07T01:31:41.709Z,86.43
2022-08-07T01:34:14.289Z,86.51
2022-08-07T01:36:44.357Z,87.00
2022-08-07T01:39:39.709Z,86.86
2022-08-07T01:42:37.696Z,86.85
2022-08-07T01:45:15.926Z,86.92
2022-08-07T01:48:18.585Z,86.87
2022-08-07T01:50:43.154Z,86.90
2022-08-07T01:53:21.581Z,87.09
2022-08-07T01:56:03.415Z,87.02
2022-08-07T01:58:41.087Z,87.28
2022-08-07T02:01:25.689Z,87.50
2022-08-07T02:04:16.302Z,87.60
2022-08-07T02:06:49.006Z,87.76
2022-08-07T02:09:33.468Z,87.68
2022-08-07T02:12:19.833Z,87.61
2022-08-07T02:15:00.839Z,87.73
2022-08-07T02:17:57.481Z,87.76
2022-08-07T02:20:30.182Z,87.61
2022-08-07T02:23:02.662Z,87.70
2022-08-07T02:26:30.506Z,87.86
2022-08-07T02:28:24.650Z,88.17
2022-08-07T02:30:59.075Z,88.37
2022-08-07T02:33:41.964Z,88.65
2022-08-07T02:36:30.777Z,88.47
2022-08-07T02:39:16.546Z,88.38
2022-08-07T02:41:58.137Z,88.34
2022-08-07T02:44:34.814Z,88.18
2022-08-07T02:47:08.063Z,88.10
2022-08-07T02:49:56.302Z,88.26
2022-08-07T02:52:39.086Z,88.21
2022-08-07T02:55:28.740Z,88.37
2022-08-07T02:58:13.507Z,88.10
2022-08-07T03:00:46.704Z,88.02
2022-08-07T03:03:22.604Z,88.03
2022-08-07T03:05:56.557Z,88.15
2022-08-07T03:08:26.820Z,88.23
2022-08-07T03:10:59.590Z,88.22
2022-08-07T03:13:39.239Z,88.10
2022-08-07T03:16:18.659Z,88.48
2022-08-07T03:18:53.123Z,88.75
2022-08-07T03:21:24.471Z,88.83
2022-08-07T03:24:21.220Z,89.04
2022-08-07T03:26:58.871Z,88.80
2022-08-07T03:29:44.570Z,88.80
2022-08-07T03:32:23.123Z,88.76
2022-08-07T03:35:17.032Z,88.70
2022-08-07T03:37:55.095Z,88.70
2022-08-07T03:40:31.081Z,88.58
2022-08-07T03:43:13.565Z,88.76
2022-08-07T03:45:47.861Z,88.90
2022-08-07T03:48:20.134Z,89.10
2022-08-07T03:50:52.073Z,89.39
2022-08-07T03:53:30.239Z,89.21
2022-08-07T03:56:33.619Z,88.93
2022-08-07T03:59:10.030Z,88.94
2022-08-07T04:01:49.809Z,88.82
2022-08-07T04:04:23.092Z,88.95
2022-08-07T04:06:58.000Z,89.14
2022-08-07T04:09:44.739Z,89.14
2022-08-07T04:12:24.514Z,88.84
2022-08-07T04:14:59.405Z,88.79
2022-08-07T04:18:11.300Z,88.64
2022-08-07T04:20:19.655Z,88.60
2022-08-07T04:22:53.561Z,88.57
2022-08-07T04:25:41.007Z,88.57
2022-08-07T04:28:13.183Z,88.44
2022-08-07T04:30:55.339Z,88.27
2022-08-07T04:33:30.873Z,88.07
2022-08-07T04:35:59.830Z,87.72
2022-08-07T04:38:30.821Z,86.35
2022-08-07T04:40:59.722Z,84.05
2022-08-07T04:44:09.865Z,80.67
2022-08-07T04:47:05.010Z,79.59
2022-08-07T04:50:04.008Z,77.67
2022-08-07T04:53:00.064Z,75.75
2022-08-07T04:58:16.932Z,73.15
2022-08-07T05:00:12.490Z,71.53
2022-08-07T05:02:20.864Z,69.61
2022-08-07T05:05:52.728Z,67.89
2022-08-07T05:08:08.433Z,67.72
2022-08-07T05:10:58.538Z,66.47
2022-08-07T05:14:56.174Z,64.16
2022-08-07T05:16:32.018Z,64.55
2022-08-07T05:19:15.607Z,63.55
2022-08-07T05:22:00.564Z,62.85
2022-08-07T05:24:39.703Z,63.71
2022-08-07T05:27:14.533Z,63.01
2022-08-07T05:30:02.270Z,61.58
2022-08-07T05:32:32.021Z,60.38
2022-08-07T05:35:02.228Z,61.04
2022-08-07T05:37:31.768Z,60.50
2022-08-07T05:40:18.710Z,60.52
2022-08-07T05:42:56.349Z,60.07
2022-08-07T05:45:47.756Z,60.18
2022-08-07T05:48:26.386Z,59.30
2022-08-07T05:51:01.103Z,58.60
2022-08-07T05:54:12.144Z,58.46
2022-08-07T05:56:20.725Z,56.55
2022-08-07T05:59:09.201Z,55.76
2022-08-07T06:01:41.275Z,56.54
2022-08-07T06:04:10.418Z,57.27
2022-08-07T06:06:46.380Z,57.03
2022-08-07T06:09:18.026Z,56.71
2022-08-07T06:11:49.863Z,56.99
2022-08-07T06:14:20.811Z,55.71
2022-08-07T06:16:56.329Z,55.83
2022-08-07T06:19:47.981Z,54.99
2022-08-07T06:22:27.126Z,55.52
2022-08-07T06:25:11.015Z,55.24
2022-08-07T06:28:00.566Z,54.67
2022-08-07T06:30:36.133Z,55.21
2022-08-07T06:33:16.564Z,54.39
2022-08-07T06:36:12.245Z,53.31
2022-08-07T06:38:59.230Z,52.84
2022-08-07T06:42:02.903Z,54.12
2022-08-07T06:44:51.859Z,53.54
2022-08-07T06:47:22.338Z,53.70
2022-08-07T06:49:58.454Z,50.87
2022-08-07T06:52:38.363Z,51.71
2022-08-07T06:55:34.299Z,51.72
2022-08-07T06:58:12.409Z,52.42
2022-08-07T07:00:52.830Z,51.32
2022-08-07T07:03:39.564Z,52.01
2022-08-07T07:06:13.005Z,50.72
2022-08-07T07:08:46.675Z,50.63
2022-08-07T07:12:08.162Z,50.54
2022-08-07T07:14:08.605Z,50.72
2022-08-07T07:16:49.445Z,50.24
2022-08-07T07:19:55.922Z,48.09
2022-08-07T07:22:36.639Z,49.54
2022-08-07T07:26:33.236Z,50.54
2022-08-07T07:28:42.826Z,49.65
2022-08-07T07:31:25.137Z,47.90
2022-08-07T07:34:03.683Z,49.12
2022-08-07T07:36:33.751Z,50.53
2022-08-07T07:39:04.283Z,50.10
2022-08-07T07:42:01.972Z,51.91
2022-08-07T07:44:26.017Z,50.95
2022-08-07T07:47:09.294Z,50.86
2022-08-07T07:50:33.286Z,48.68
2022-08-07T07:52:36.491Z,50.72
2022-08-07T07:55:06.622Z,49.96
2022-08-07T07:57:51.518Z,50.53
2022-08-07T08:00:29.713Z,51.04
2022-08-07T08:03:09.243Z,49.06
2022-08-07T08:05:54.392Z,47.53
2022-08-07T08:08:34.549Z,48.09
2022-08-07T08:11:07.965Z,47.80
2022-08-07T08:13:52.946Z,48.78
2022-08-07T08:18:36.907Z,48.33
2022-08-07T08:20:15.999Z,46.65
2022-08-07T08:22:33.086Z,47.16
2022-08-07T08:25:42.156Z,47.25
2022-08-07T08:28:16.870Z,48.95
2022-08-07T08:30:59.943Z,49.15
2022-08-07T08:33:34.206Z,50.16
2022-08-07T08:36:03.407Z,48.57
2022-08-07T08:38:44.581Z,48.32
2022-08-07T08:41:58.533Z,49.33
2022-08-07T08:44:35.489Z,48.49
2022-08-07T08:47:17.226Z,48.73
2022-08-07T08:50:08.194Z,48.88
2022-08-07T08:53:01.673Z,49.30
2022-08-07T08:55:54.954Z,48.47
2022-08-07T08:58:57.970Z,49.37
2022-08-07T09:01:39.811Z,49.54
2022-08-07T09:04:31.658Z,49.90
2022-08-07T09:07:45.919Z,50.63
2022-08-07T09:10:20.335Z,49.85
2022-08-07T09:13:37.741Z,49.67
2022-08-07T09:16:21.956Z,48.83
2022-08-07T09:19:53.387Z,49.35
2022-08-07T09:24:35.041Z,47.57
2022-08-07T09:26:10.069Z,48.06
2022-08-07T09:30:01.699Z,48.22
2022-08-07T09:31:48.659Z,47.71
2022-08-07T09:34:38.310Z,48.37
2022-08-07T09:37:20.541Z,47.91
2022-08-07T09:40:17.941Z,47.13
2022-08-07T09:43:09.872Z,47.33
2022-08-07T09:47:50.518Z,47.50
2022-08-07T09:50:01.876Z,46.37
2022-08-07T09:52:34.633Z,46.63
2022-08-07T09:55:29.475Z,46.89
2022-08-07T09:58:32.233Z,45.91
2022-08-07T10:01:51.819Z,45.51
2022-08-07T10:04:28.351Z,44.72
2022-08-07T10:07:39.732Z,45.56
2022-08-07T10:10:28.690Z,46.22
2022-08-07T10:13:55.041Z,44.92
2022-08-07T10:16:41.905Z,44.39
2022-08-07T10:19:37.652Z,43.68
2022-08-07T10:22:46.328Z,44.61
2022-08-07T10:25:43.224Z,44.25
2022-08-07T10:28:38.787Z,44.82
2022-08-07T10:31:45.268Z,45.45
2022-08-07T10:34:48.905Z,44.97
2022-08-07T10:38:00.716Z,44.68
2022-08-07T10:40:40.145Z,45.24
2022-08-07T10:43:19.351Z,44.33
2022-08-07T10:46:07.759Z,45.29
2022-08-07T10:48:46.511Z,45.85
2022-08-07T10:51:57.250Z,47.34
2022-08-07T10:54:26.839Z,51.56
2022-08-07T10:57:29.485Z,48.73
2022-08-07T11:00:36.892Z,48.91
2022-08-07T11:03:13.119Z,48.97
2022-08-07T11:05:50.501Z,48.18
2022-08-07T11:08:44.122Z,47.58
2022-08-07T11:11:27.164Z,45.70
2022-08-07T11:14:46.196Z,45.11
2022-08-07T11:17:43.212Z,44.33
2022-08-07T11:20:24.536Z,42.91
2022-08-07T11:23:20.553Z,42.69
2022-08-07T11:26:24.935Z,42.72
2022-08-07T11:29:13.223Z,41.51
2022-08-07T11:32:15.155Z,42.43
2022-08-07T11:35:09.432Z,42.44
2022-08-07T11:38:12.450Z,43.05
2022-08-07T11:41:06.355Z,42.20
2022-08-07T11:44:11.335Z,41.91
2022-08-07T11:47:26.115Z,43.16
2022-08-07T11:50:44.729Z,43.93
2022-08-07T11:54:00.815Z,45.15
2022-08-07T11:56:40.709Z,45.38
2022-08-07T12:00:10.248Z,44.40
2022-08-07T12:02:31.288Z,44.47
2022-08-07T12:05:09.035Z,43.47
2022-08-07T12:08:00.600Z,43.69
2022-08-07T12:11:08.109Z,42.60
2022-08-07T12:13:58.540Z,41.78
2022-08-07T12:16:31.053Z,40.68
2022-08-07T12:19:21.450Z,40.91
2022-08-07T12:22:39.342Z,42.27
2022-08-07T12:26:05.459Z,42.96
2022-08-07T12:28:34.923Z,43.84
2022-08-07T12:31:11.388Z,44.10
2022-08-07T12:34:01.238Z,44.02
2022-08-07T12:36:33.569Z,43.44
2022-08-07T12:39:09.540Z,44.06
2022-08-07T12:41:55.016Z,43.01
2022-08-07T12:44:25.891Z,43.17
2022-08-07T12:47:06.984Z,43.52
2022-08-07T12:50:04.371Z,44.27
2022-08-07T12:52:52.342Z,41.99
2022-08-07T12:56:02.062Z,42.11
2022-08-07T12:58:39.586Z,41.76
2022-08-07T13:01:35.812Z,42.52
2022-08-07T13:04:34.067Z,42.98
2022-08-07T13:08:12.246Z,42.64
2022-08-07T13:10:39.563Z,43.85
2022-08-07T13:13:47.558Z,43.28
2022-08-07T13:16:22.757Z,43.26
2022-08-07T13:19:21.849Z,44.14
2022-08-07T13:22:12.783Z,42.70
2022-08-07T13:25:02.953Z,42.55
2022-08-07T13:28:12.433Z,42.62
2022-08-07T13:30:41.246Z,42.01
2022-08-07T13:34:34.583Z,42.92
2022-08-07T13:36:46.856Z,43.14
2022-08-07T13:40:34.232Z,43.76
2022-08-07T13:42:25.525Z,43.80
2022-08-07T13:46:07.163Z,43.98
2022-08-07T13:48:08.077Z,44.02
2022-08-07T13:50:44.495Z,44.24
2022-08-07T13:53:45.734Z,43.74
2022-08-07T13:56:36.256Z,43.97
2022-08-07T13:59:15.668Z,44.30
2022-08-07T14:01:51.563Z,44.61
2022-08-07T14:04:35.999Z,47.16
2022-08-07T14:07:10.746Z,46.96
2022-08-07T14:10:02.304Z,46.19
2022-08-07T14:12:36.304Z,46.74
2022-08-07T14:15:23.864Z,46.66
2022-08-07T14:18:27.135Z,46.56
2022-08-07T14:20:48.815Z,46.87
2022-08-07T14:24:00.493Z,46.24
2022-08-07T14:26:30.353Z,46.55
2022-08-07T14:29:08.859Z,46.80
2022-08-07T14:31:59.264Z,46.18
2022-08-07T14:34:32.842Z,45.33
2022-08-07T14:37:03.381Z,45.79
2022-08-07T14:42:32.638Z,45.25
2022-08-07T14:45:21.663Z,45.42
2022-08-07T14:47:52.989Z,44.75
2022-08-07T14:54:09.847Z,44.06
2022-08-07T14:56:13.890Z,44.24
2022-08-07T14:58:45.211Z,43.38
2022-08-07T15:04:06.933Z,42.47
2022-08-07T15:06:39.136Z,41.56
2022-08-07T15:10:00.001Z,41.47
2022-08-07T15:12:09.320Z,42.28
2022-08-07T15:14:56.051Z,41.52
2022-08-07T15:17:54.603Z,41.97
2022-08-07T15:20:33.291Z,41.57
2022-08-07T15:23:16.959Z,41.48
2022-08-07T15:25:56.912Z,42.25
2022-08-07T15:28:36.192Z,41.24
2022-08-07T15:32:01.275Z,42.02
2022-08-07T15:34:15.001Z,42.02
2022-08-07T15:37:03.284Z,42.33
2022-08-07T15:39:56.853Z,43.13
2022-08-07T15:42:52.817Z,43.03
2022-08-07T15:45:56.545Z,42.72
2022-08-07T15:48:33.275Z,42.89
2022-08-07T15:51:10.032Z,43.40
2022-08-07T15:53:53.619Z,43.23
2022-08-07T15:56:41.680Z,43.35
2022-08-07T15:59:16.326Z,43.24
2022-08-07T16:02:01.669Z,43.87
2022-08-07T16:04:33.743Z,44.37
2022-08-07T16:08:28.445Z,44.96
2022-08-07T16:10:14.304Z,44.82
2022-08-07T16:13:57.685Z,44.33
2022-08-07T16:16:56.842Z,44.47
2022-08-07T16:19:59.778Z,45.21
2022-08-07T16:23:09.844Z,45.48
2022-08-07T16:26:01.648Z,45.87
2022-08-07T16:29:18.640Z,46.28
2022-08-07T16:32:02.223Z,46.40
2022-08-07T16:34:48.622Z,46.85
2022-08-07T16:38:04.140Z,47.19
2022-08-07T16:41:05.542Z,47.65
2022-08-07T16:44:53.649Z,48.37
2022-08-07T16:47:27.355Z,48.42
2022-08-07T16:50:38.815Z,47.74
2022-08-07T16:54:02.168Z,47.90
2022-08-07T16:56:38.831Z,47.43
2022-08-07T16:59:47.403Z,47.12
2022-08-07T17:02:52.222Z,47.89
2022-08-07T17:06:18.945Z,48.00
2022-08-07T17:09:10.789Z,47.74
2022-08-07T17:12:04.553Z,48.14
2022-08-07T17:14:55.684Z,47.78
2022-08-07T17:17:48.497Z,47.98
2022-08-07T17:20:31.764Z,48.36
2022-08-07T17:23:32.590Z,48.31
2022-08-07T17:26:29.846Z,48.10
2022-08-07T17:29:18.338Z,48.36
2022-08-07T17:32:51.875Z,48.40
2022-08-07T17:35:55.693Z,48.83
2022-08-07T17:38:50.983Z,49.10
2022-08-07T17:42:02.104Z,49.57
2022-08-07T17:44:49.971Z,49.84
2022-08-07T17:47:38.506Z,50.54
2022-08-07T17:50:30.668Z,50.90
2022-08-07T17:53:09.109Z,51.26
2022-08-07T17:56:28.944Z,51.32
2022-08-07T17:59:10.142Z,51.41
2022-08-07T18:02:00.347Z,51.79
2022-08-07T18:04:43.513Z,52.34
2022-08-07T18:07:34.012Z,52.44
2022-08-07T18:12:16.598Z,52.82
2022-08-07T18:13:45.431Z,53.31
2022-08-07T18:16:31.078Z,53.65
2022-08-07T18:21:08.707Z,53.78
2022-08-07T18:22:31.866Z,54.07
2022-08-07T18:25:19.463Z,54.31
2022-08-07T18:28:35.717Z,54.69
2022-08-07T18:31:40.552Z,55.10
2022-08-07T18:35:00.952Z,55.28
2022-08-07T18:38:57.224Z,55.70
2022-08-07T18:41:16.738Z,55.77
2022-08-07T18:44:10.629Z,55.86
2022-08-07T18:47:04.245Z,56.04
2022-08-07T18:50:29.986Z,56.37
2022-08-07T18:52:53.902Z,56.72
2022-08-07T18:55:41.974Z,57.18
2022-08-07T18:58:34.648Z,57.49
2022-08-07T19:02:20.043Z,57.72
2022-08-07T19:04:57.764Z,58.21
2022-08-07T19:08:12.823Z,58.30
2022-08-07T19:10:59.493Z,58.60
2022-08-07T19:13:50.300Z,58.78
2022-08-07T19:17:01.494Z,59.08
2022-08-07T19:19:49.660Z,59.46
2022-08-07T19:22:39.834Z,59.75
2022-08-07T19:26:21.866Z,60.12
2022-08-07T19:28:30.059Z,60.57
2022-08-07T19:31:42.759Z,60.96
2022-08-07T19:34:14.623Z,61.38
2022-08-07T19:37:16.946Z,61.63
2022-08-07T19:39:57.782Z,61.99
2022-08-07T19:42:40.453Z,62.33
2022-08-07T19:46:04.874Z,62.65
2022-08-07T19:48:18.718Z,62.95
2022-08-07T19:50:54.352Z,63.40
2022-08-07T19:54:32.247Z,63.76
2022-08-07T19:57:56.779Z,64.21
2022-08-07T19:59:22.761Z,64.77
2022-08-07T20:02:19.217Z,65.23
2022-08-07T20:05:04.015Z,65.68
2022-08-07T20:07:47.380Z,66.02
2022-08-07T20:10:36.214Z,66.53
2022-08-07T20:13:27.059Z,66.95
2022-08-07T20:16:03.309Z,67.47
2022-08-07T20:18:34.342Z,67.86
2022-08-07T20:21:14.816Z,68.11
2022-08-07T20:24:01.057Z,68.72
2022-08-07T20:26:32.644Z,68.96
2022-08-07T20:29:17.009Z,69.29
2022-08-07T20:32:11.428Z,69.65
2022-08-07T20:34:57.772Z,69.99
2022-08-07T20:37:46.806Z,70.28
2022-08-07T20:40:33.024Z,70.69
2022-08-07T20:43:14.859Z,71.20
2022-08-07T20:46:28.667Z,71.56
2022-08-07T20:49:54.582Z,72.06
2022-08-07T20:51:40.442Z,72.41
2022-08-07T20:54:29.615Z,72.81
2022-08-07T20:57:03.787Z,73.17
2022-08-07T21:00:06.735Z,73.40
2022-08-07T21:02:54.200Z,73.65
2022-08-07T21:05:51.233Z,74.09
2022-08-07T21:08:37.696Z,74.57
2022-08-07T21:11:22.012Z,74.92
2022-08-07T21:14:32.820Z,75.22
2022-08-07T21:18:00.741Z,75.51
2022-08-07T21:19:51.798Z,75.81
2022-08-07T21:22:51.204Z,76.19
2022-08-07T21:25:38.883Z,76.36
2022-08-07T21:28:49.556Z,76.55
2022-08-07T21:31:31.441Z,76.84
2022-08-07T21:34:21.384Z,77.21
2022-08-07T21:37:57.305Z,77.37
2022-08-07T21:40:47.429Z,77.70
2022-08-07T21:43:55.426Z,78.08
2022-08-07T21:46:38.430Z,78.39
2022-08-07T21:49:26.877Z,78.71
2022-08-07T21:52:32.790Z,78.88
2022-08-07T21:55:30.760Z,78.93
2022-08-07T21:58:30.476Z,79.16
2022-08-07T22:01:08.519Z,79.31
2022-08-07T22:03:51.678Z,79.74
2022-08-07T22:06:30.780Z,79.80
2022-08-07T22:09:10.324Z,80.08
2022-08-07T22:12:05.648Z,80.37
2022-08-07T22:15:00.094Z,80.61
2022-08-07T22:17:37.737Z,80.81
2022-08-07T22:20:50.584Z,81.07
2022-08-07T22:23:52.604Z,81.39
2022-08-07T22:26:45.035Z,81.56
2022-08-07T22:29:33.747Z,81.61
2022-08-07T22:32:20.088Z,81.94
2022-08-07T22:34:53.703Z,82.08
2022-08-07T22:38:03.694Z,82.26
2022-08-07T22:41:02.937Z,82.48
2022-08-07T22:43:51.314Z,82.73
2022-08-07T22:47:03.650Z,83.09
2022-08-07T22:49:59.759Z,83.43
2022-08-07T22:53:10.174Z,83.71
2022-08-07T22:55:46.218Z,83.80
2022-08-07T22:58:44.507Z,84.09
2022-08-07T23:01:49.898Z,84.36
2022-08-07T23:04:30.648Z,84.59
2022-08-07T23:07:04.944Z,84.83
2022-08-07T23:10:38.166Z,85.05
2022-08-07T23:13:20.587Z,85.30
2022-08-07T23:16:46.343Z,85.38
2022-08-07T23:20:00.092Z,85.74
2022-08-07T23:22:55.800Z,85.94
2022-08-07T23:25:53.598Z,86.19
2022-08-07T23:28:44.299Z,86.40
2022-08-07T23:32:48.919Z,86.60
2022-08-07T23:34:43.369Z,86.67
2022-08-07T23:37:29.890Z,87.02
2022-08-07T23:40:51.917Z,87.25
2022-08-07T23:43:38.258Z,87.51
2022-08-07T23:46:23.860Z,87.75
2022-08-07T23:49:04.461Z,87.81
2022-08-07T23:53:06.716Z,87.99
2022-08-07T23:54:57.684Z,88.15
2022-08-07T23:57:36.506Z,88.30
